ADDS METAR Data INFO
IDs: Format: Raw Decoded Include TAF

Data at: 2254 UTC 22 Jun 2018

K1A6 222235Z AUTO 19011G16KT 10SM SCT047 SCT060 26/19 A2977 RMK AO2 LTG DSNT N T02640191
K1A6 222215Z AUTO 21006KT 10SM SCT050 SCT060 27/19 A2977 RMK AO2 T02650187
K1A6 222155Z AUTO 19008G14KT 10SM CLR 27/19 A2976 RMK AO2 T02740190
K1A6 222135Z AUTO 19004KT 10SM CLR 27/19 A2977 RMK AO2 T02670188
K1A6 222115Z AUTO 00000KT 10SM CLR 26/19 A2978 RMK AO2 LTG DSNT NW T02620188
K1A6 222055Z AUTO 18004KT 10SM CLR 26/19 A2979 RMK AO2 LTG DSNT NE 60014 T02620189
K1A6 222035Z AUTO 00000KT 10SM CLR 25/21 A2980 RMK AO2 T02470207
K1A6 222015Z AUTO 00000KT 10SM SCT095 SCT120 24/22 A2981 RMK AO2 T02400216
K1A6 221955Z AUTO 00000KT 10SM SCT028 BKN095 OVC120 22/21 A2982 RMK AO2 P0014 T02210211
K1A6 221935Z AUTO 25008G16KT 220V280 1 1/4SM +RA SCT013 BKN049 OVC065 21/20 A2983 RMK AO2 LTG DSNT W P0013 T02080199
K1A6 221915Z AUTO 18006KT 10SM SCT060 SCT070 BKN100 28/17 A2979 RMK AO2 T02830170
K1A6 221855Z AUTO 19007KT 10SM SCT049 SCT080 SCT120 30/18 A2978 RMK AO2 T02990175
K1A6 221835Z AUTO 19008KT 150V210 10SM SCT049 SCT065 SCT070 29/18 A2979 RMK AO2 T02920175
K1A6 221815Z AUTO 20006KT 10SM BKN049 BKN055 28/18 A2981 RMK AO2 T02840182
K1A6 221755Z AUTO 23005KT 10SM SCT047 SCT055 SCT065 29/18 A2982 RMK AO2 60002 T02850178 10290 20214
K1A6 221735Z AUTO 24006KT 10SM SCT047 SCT065 29/18 A2982 RMK AO2 T02870184
K1A6 221715Z AUTO 19006KT 10SM CLR 28/19 A2982 RMK AO2 T02770194
K1A6 221655Z AUTO 00000KT 10SM SCT015 SCT035 SCT050 25/23 A2983 RMK AO2 P0002 T02460225
K1A6 221635Z AUTO 24003KT 7SM RA SCT020 BKN035 OVC070 23/21 A2984 RMK AO2 P0001 T02310211
K1A6 221615Z AUTO 31008KT 5SM -RA BKN035 OVC050 24/21 A2984 RMK AO2 P0001 T02410212
K1A6 221555Z AUTO 20007KT 10SM SCT035 SCT049 BKN110 27/19 A2983 RMK AO2 T02710188
K1A6 221535Z AUTO 20007KT 10SM SCT050 SCT100 27/19 A2983 RMK AO2 T02710193
K1A6 221515Z AUTO 18007KT 10SM CLR 27/20 A2982 RMK AO2 T02700199
K1A6 221455Z AUTO 21006KT 160V220 10SM SCT024 26/20 A2983 RMK AO2 T02610197
K1A6 221435Z AUTO 19007KT 10SM SCT024 26/20 A2982 RMK AO2 T02560201
K1A6 221415Z AUTO 19003KT 10SM SCT026 SCT035 SCT110 25/20 A2983 RMK AO2 T02500201
K1A6 221355Z AUTO 00000KT 10SM SCT022 BKN028 OVC110 25/20 A2983 RMK AO2 T02460195
K1A6 221335Z AUTO 25003KT 10SM SCT022 SCT028 BKN090 25/20 A2984 RMK AO2 T02490198
K1A6 221315Z AUTO 00000KT 10SM SCT026 SCT041 SCT065 24/22 A2983 RMK AO2 T02370215
K1A6 221255Z AUTO 00000KT 10SM SCT025 BKN032 BKN044 23/22 A2983 RMK AO2 T02250223
K1A6 221235Z AUTO 00000KT 10SM SCT025 SCT044 SCT095 22/22 A2983 RMK AO2 T02210220
K1A6 221215Z AUTO 00000KT 10SM SCT030 SCT039 BKN045 22/22 A2983 RMK AO2 LTG DSNT E T02210221
K1A6 221155Z AUTO 00000KT 10SM BKN028 BKN034 BKN080 21/21 A2983 RMK AO2 70014 T02140214 10214 20202
K1A6 221135Z AUTO 34003KT 10SM SCT003 BKN028 BKN034 21/21 A2983 RMK AO2 T02110211
K1A6 221115Z AUTO 00000KT 10SM SCT026 SCT075 21/21 A2982 RMK AO2 T02080208
K1A6 221055Z AUTO 00000KT 10SM SCT065 BKN080 21/21 A2982 RMK AO2 T02060206
K1A6 221035Z AUTO 00000KT 10SM SCT065 SCT080 21/21 A2982 RMK AO2 T02070207
K1A6 221015Z AUTO 00000KT 10SM SCT080 21/21 A2980 RMK AO2 T02050205
K1A6 220955Z AUTO 00000KT 10SM SCT029 SCT055 SCT075 21/21 A2980 RMK AO2 T02050205
K1A6 220935Z AUTO 00000KT 10SM SCT021 BKN032 OVC080 21/21 A2980 RMK AO2 T02060206
K1A6 220915Z AUTO 00000KT 10SM SCT006 BKN025 OVC033 21/21 A2980 RMK AO2 T02060206
K1A6 220855Z AUTO 00000KT 10SM SCT013 BKN026 OVC032 21/21 A2979 RMK AO2 T02050205
K1A6 220835Z AUTO 00000KT 10SM SCT016 BKN024 BKN033 20/20 A2979 RMK AO2 T02040204
K1A6 220815Z AUTO 00000KT 10SM SCT003 OVC018 20/20 A2979 RMK AO2 T02040204
K1A6 220755Z AUTO 00000KT 7SM BKN003 BKN018 BKN039 20/20 A2979 RMK AO2 T02040204
K1A6 220735Z AUTO 00000KT 10SM SCT020 SCT035 SCT045 21/21 A2980 RMK AO2 T02060206
K1A6 220715Z AUTO 00000KT 10SM SCT020 SCT035 SCT043 21/21 A2980 RMK AO2 T02050205
K1A6 220655Z AUTO 00000KT 7SM SCT018 SCT035 BKN041 21/21 A2980 RMK AO2 T02050205
K1A6 220635Z AUTO 00000KT 10SM SCT015 BKN038 BKN050 21/21 A2980 RMK AO2 T02100210
K1A6 220615Z AUTO 00000KT 7SM SCT012 BKN037 BKN055 21/21 A2981 RMK AO2 T02080208
K1A6 220555Z AUTO 00000KT 7SM SCT014 SCT021 BKN033 21/21 A2981 RMK AO2 60002 T02100210 10242 20210 402660210
K1A6 220535Z AUTO 00000KT 10SM SCT014 BKN019 OVC035 21/21 A2982 RMK AO2 T02110211
K1A6 220515Z AUTO 00000KT 10SM SCT009 BKN014 OVC027 21/21 A2982 RMK AO2 T02110211
K1A6 220455Z AUTO 00000KT 10SM SCT009 SCT022 BKN027 21/21 A2983 RMK AO2 T02120212
K1A6 220435Z AUTO 00000KT 10SM SCT013 BKN027 BKN032 21/21 A2982 RMK AO2 T02130213
K1A6 220415Z AUTO 00000KT 10SM SCT015 SCT027 BKN035 22/22 A2983 RMK AO2 T02150215
K1A6 220355Z AUTO 00000KT 7SM SCT003 BKN036 OVC047 22/22 A2984 RMK AO2 T02150215
K1A6 220335Z AUTO 00000KT 10SM SCT003 SCT017 BKN030 22/22 A2984 RMK AO2 T02150215
K1A6 220315Z AUTO 00000KT 10SM BKN017 BKN027 BKN037 22/22 A2984 RMK AO2 T02170217
K1A6 220255Z AUTO 00000KT 10SM SCT019 BKN025 OVC049 22/22 A2984 RMK AO2 60001 T02200220
K1A6 220235Z AUTO 00000KT 10SM BKN019 BKN038 OVC047 22/22 A2984 RMK AO2 T02210221
K1A6 220215Z AUTO 00000KT 10SM BKN017 OVC042 23/23 A2984 RMK AO2 T02250225
K1A6 220155Z AUTO 00000KT 10SM BKN019 BKN023 OVC029 23/23 A2984 RMK AO2 T02250225
K1A6 220135Z AUTO 00000KT 10SM BKN019 BKN025 OVC032 23/23 A2983 RMK AO2 T02250225
K1A6 220115Z AUTO 00000KT 10SM SCT019 BKN025 BKN036 23/23 A2982 RMK AO2 T02280228
K1A6 220055Z AUTO 00000KT 10SM SCT024 SCT038 BKN070 23/23 A2982 RMK AO2 P0001 T02300229
K1A6 220035Z AUTO 00000KT 4SM RA SCT021 BKN041 OVC070 24/23 A2982 RMK AO2 P0001 T02370225
K1A6 220015Z AUTO 00000KT 10SM SCT020 SCT029 BKN039 24/22 A2981 RMK AO2 LTG DSNT SE T02420218
K1A6 212355Z AUTO 00000KT 10SM SCT028 SCT041 SCT070 24/22 A2981 RMK AO2 60002 T02420216 10254 20232
K1A6 212335Z AUTO 16004KT 10SM SCT028 SCT043 BKN080 25/22 A2981 RMK AO2 T02470215
K1A6 212315Z AUTO 17005KT 10SM SCT021 SCT031 BKN080 25/21 A2981 RMK AO2 T02540214
K1A6 212255Z AUTO 18003KT 10SM SCT020 BKN030 OVC070 25/22 A2981 RMK AO2 T02490216
K1A6 212235Z AUTO 18006KT 10SM BKN023 BKN028 OVC070 25/22 A2981 RMK AO2 T02490215
K1A6 212215Z AUTO 17004KT 10SM BKN023 BKN032 BKN075 25/22 A2982 RMK AO2 T02470215
K1A6 212155Z AUTO 16004KT 10SM SCT021 BKN032 BKN040 25/22 A2982 RMK AO2 T02480216
K1A6 212135Z AUTO 18003KT 10SM SCT031 BKN042 OVC070 25/22 A2982 RMK AO2 T02460216
K1A6 212115Z AUTO 18003KT 10SM SCT037 BKN044 OVC050 25/22 A2982 RMK AO2 T02450219
K1A6 212055Z AUTO 21008KT 10SM SCT016 BKN045 OVC050 25/22 A2982 RMK AO2 P0001 60002 T02510220
K1A6 212035Z AUTO 00000KT 10SM SCT037 BKN045 OVC060 24/23 A2983 RMK AO2 P0001 T02390226
K1A6 212015Z AUTO 00000KT 7SM -RA SCT043 BKN065 BKN090 24/22 A2983 RMK AO2 P0001 T02350224
K1A6 211955Z AUTO 18005KT 10SM SCT020 SCT026 BKN036 24/22 A2984 RMK AO2 T02380220
K1A6 211935Z AUTO 18004KT 10SM SCT018 BKN028 OVC044 24/22 A2984 RMK AO2 T02370222
K1A6 211915Z AUTO 18004KT 10SM BKN028 OVC036 24/23 A2985 RMK AO2 T02380225
K1A6 211855Z AUTO 00000KT 10SM -RA SCT024 BKN032 OVC065 24/23 A2985 RMK AO2 P0001 T02360226
K1A6 211835Z AUTO 17004KT 7SM -RA SCT023 BKN035 OVC110 24/23 A2986 RMK AO2 T02350225
K1A6 211815Z AUTO 19004KT 10SM DZ SCT017 BKN028 OVC070 24/22 A2987 RMK AO2 T02370223
K1A6 211755Z AUTO 21004KT 10SM RA SCT018 BKN032 OVC040 24/22 A2987 RMK AO2 P0010 60010 T02400221 10266 20231
K1A6 211735Z AUTO 00000KT 2SM RA SCT016 BKN035 OVC045 23/22 A2988 RMK AO2 VIS 1 1/4V5 P0009 T02310224
K1A6 211715Z AUTO 21003KT 10SM SCT038 BKN055 OVC065 25/20 A2988 RMK AO2 T02540202
K1A6 211655Z AUTO 00000KT 10SM -RA BKN038 OVC044 25/20 A2988 RMK AO2 T02500204
K1A6 211635Z AUTO 00000KT 10SM SCT027 OVC042 26/20 A2988 RMK AO2 T02580199
K1A6 211615Z AUTO 18006KT 10SM SCT027 BKN040 OVC060 27/20 A2988 RMK AO2 T02650202
K1A6 211555Z AUTO 19004KT 10SM SCT030 SCT040 OVC060 26/20 A2989 RMK AO2 T02600202
K1A6 211535Z AUTO 18004KT 10SM SCT028 SCT034 BKN075 26/20 A2990 RMK AO2 T02600200
K1A6 211515Z AUTO 18003KT 10SM SCT065 SCT080 26/20 A2990 RMK AO2 T02620200
K1A6 211455Z AUTO 23003KT 10SM BKN060 26/19 A2990 RMK AO2 T02560191
K1A6 211435Z AUTO 00000KT 10SM BKN065 BKN070 OVC120 25/19 A2990 RMK AO2 T02540192
K1A6 211355Z AUTO 30005KT 10SM SCT031 SCT055 OVC075 25/20 A2992 RMK AO2 T02470195
K1A6 211335Z AUTO 00000KT 10SM OVC055 25/20 A2992 RMK AO2 T02460196
K1A6 211315Z AUTO 00000KT 10SM SCT046 OVC065 25/20 A2992 RMK AO2 T02470202
K1A6 211255Z AUTO 00000KT 10SM BKN075 OVC100 25/20 A2992 RMK AO2 T02470201
K1A6 211235Z AUTO 00000KT 10SM SCT075 BKN100 BKN120 25/20 A2992 RMK AO2 T02470201
K1A6 211215Z AUTO 00000KT 10SM SCT090 SCT110 24/21 A2991 RMK AO2 T02390210
K1A6 211155Z AUTO 00000KT 10SM BKN100 23/22 A2991 RMK AO2 T02330217 10233 20217
K1A6 211135Z AUTO 00000KT 10SM SCT024 SCT045 OVC100 23/22 A2992 RMK AO2 T02300216
K1A6 211115Z AUTO 00000KT 10SM SCT024 BKN080 OVC100 23/22 A2991 RMK AO2 T02250215
K1A6 211055Z AUTO 00000KT 10SM SCT024 BKN080 OVC090 22/21 A2991 RMK AO2 T02230212